Time;durP1;ratioP1;P1;durP2;ratioP2;P2;SDS_P1;SDS_P2;PMS_P1;PMS_P2;Temp;Humidity;BMP_temperature;BMP_pressure;BME280_temperature;BME280_humidity;BME280_pressure;Samples;Min_cycle;Max_cycle;Signal;HPM_P1;HPM_P2
2022/12/12 00:02:17;;;;;;;24.15;19.25;;;;;;;;;;4992891;28;100114;-71
2022/12/12 00:04:43;;;;;;;26.80;19.95;;;;;;;;;;4992105;28;99271;-70
2022/12/12 00:07:10;;;;;;;28.20;19.30;;;;;;;;;;4985281;28;100521;-71
2022/12/12 00:09:36;;;;;;;28.30;19.67;;;;;;;;;;4986462;28;98632;-71
2022/12/12 00:12:02;;;;;;;24.67;19.08;;;;;;;;;;4993129;28;99074;-70
2022/12/12 00:14:29;;;;;;;23.95;18.95;;;;;;;;;;4984796;28;99362;-71
2022/12/12 00:16:55;;;;;;;26.45;21.10;;;;;;;;;;4984804;28;99050;-72
2022/12/12 00:19:21;;;;;;;29.13;20.25;;;;;;;;;;4990346;28;100480;-71
2022/12/12 00:21:49;;;;;;;29.63;21.20;;;;;;;;;;4996756;28;100446;-71
2022/12/12 00:24:15;;;;;;;25.65;20.63;;;;;;;;;;5002901;28;99602;-71
2022/12/12 00:26:41;;;;;;;27.73;20.95;;;;;;;;;;5001137;28;99487;-71
2022/12/12 00:29:09;;;;;;;27.50;20.63;;;;;;;;;;4985276;28;99896;-71
2022/12/12 00:31:35;;;;;;;29.60;20.70;;;;;;;;;;4985025;28;99836;-71
2022/12/12 00:34:02;;;;;;;28.23;20.73;;;;;;;;;;4996216;28;100021;-71
2022/12/12 00:36:29;;;;;;;30.45;21.08;;;;;;;;;;4988299;28;99458;-71
2022/12/12 00:38:56;;;;;;;28.42;20.05;;;;;;;;;;4992161;28;99281;-71
2022/12/12 00:41:22;;;;;;;26.02;20.00;;;;;;;;;;4986943;28;99392;-72
2022/12/12 00:43:49;;;;;;;28.02;20.17;;;;;;;;;;4993448;28;100358;-71
2022/12/12 00:46:16;;;;;;;31.25;20.83;;;;;;;;;;4997608;28;99597;-71
2022/12/12 00:48:42;;;;;;;27.15;20.08;;;;;;;;;;4986663;28;98972;-71
2022/12/12 00:51:10;;;;;;;27.70;20.73;;;;;;;;;;4999377;28;99321;-71
2022/12/12 00:53:37;;;;;;;32.28;21.38;;;;;;;;;;4983586;28;100147;-71
2022/12/12 00:56:04;;;;;;;27.80;19.38;;;;;;;;;;4995362;28;100199;-71
2022/12/12 00:58:30;;;;;;;28.77;20.77;;;;;;;;;;4994811;28;99129;-71
2022/12/12 01:01:05;;;;;;;27.90;21.15;;;;;;;;;;4996806;28;100219;-71
2022/12/12 01:03:35;;;;;;;24.50;20.55;;;;;;;;;;4995156;28;100219;-71
2022/12/12 01:06:02;;;;;;;29.77;20.10;;;;;;;;;;4993650;28;100212;-71
2022/12/12 01:08:28;;;;;;;31.02;20.67;;;;;;;;;;4983473;28;99110;-71
2022/12/12 01:10:55;;;;;;;25.55;20.95;;;;;;;;;;5001125;28;99959;-72
2022/12/12 01:13:21;;;;;;;28.20;20.25;;;;;;;;;;4996677;28;99476;-71
2022/12/12 01:15:48;;;;;;;27.38;19.75;;;;;;;;;;4989968;28;100110;-72
2022/12/12 01:18:15;;;;;;;29.35;21.60;;;;;;;;;;4995502;28;100468;-71
2022/12/12 01:20:42;;;;;;;29.10;21.73;;;;;;;;;;4995396;28;99602;-71
2022/12/12 01:23:08;;;;;;;29.98;20.98;;;;;;;;;;4987216;28;100079;-71
2022/12/12 01:25:35;;;;;;;27.10;21.17;;;;;;;;;;4991545;28;100267;-71
2022/12/12 01:28:02;;;;;;;29.88;21.42;;;;;;;;;;4996996;28;100001;-71
2022/12/12 01:30:28;;;;;;;33.53;21.95;;;;;;;;;;5000864;28;99024;-71
2022/12/12 01:32:55;;;;;;;29.20;19.20;;;;;;;;;;4995803;28;99633;-72
2022/12/12 01:35:21;;;;;;;28.25;21.15;;;;;;;;;;4995426;28;100250;-71
2022/12/12 01:37:48;;;;;;;31.63;21.83;;;;;;;;;;4996037;28;99978;-72
2022/12/12 01:40:16;;;;;;;30.45;21.13;;;;;;;;;;4998571;28;99432;-72
2022/12/12 01:42:43;;;;;;;31.73;22.85;;;;;;;;;;4997692;28;100417;-71
2022/12/12 01:45:28;;;;;;;28.52;21.35;;;;;;;;;;4988944;28;100878;-71
2022/12/12 01:47:54;;;;;;;27.02;20.40;;;;;;;;;;4998558;28;100084;-71
2022/12/12 01:50:27;;;;;;;31.42;22.88;;;;;;;;;;4985628;28;100155;-71
2022/12/12 01:52:53;;;;;;;34.72;20.60;;;;;;;;;;5002457;28;99559;-71
2022/12/12 01:55:21;;;;;;;28.98;21.73;;;;;;;;;;4997521;28;100023;-72
2022/12/12 01:57:50;;;;;;;31.23;22.50;;;;;;;;;;4997888;28;99761;-71
2022/12/12 02:00:16;;;;;;;30.75;22.65;;;;;;;;;;4994840;28;98863;-71
2022/12/12 02:02:44;;;;;;;33.35;22.35;;;;;;;;;;4992257;28;99083;-71
2022/12/12 02:05:17;;;;;;;33.53;22.48;;;;;;;;;;4998645;28;99620;-71
2022/12/12 02:07:43;;;;;;;32.78;21.13;;;;;;;;;;4991510;28;100965;-71
2022/12/12 02:10:10;;;;;;;33.42;22.63;;;;;;;;;;5007178;28;100075;-70
2022/12/12 02:12:36;;;;;;;28.33;22.33;;;;;;;;;;4992969;28;100423;-71
2022/12/12 02:15:03;;;;;;;31.13;22.52;;;;;;;;;;4995297;28;99405;-71
2022/12/12 02:17:50;;;;;;;33.58;21.95;;;;;;;;;;4986773;28;100318;-71
2022/12/12 02:20:35;;;;;;;32.63;22.52;;;;;;;;;;4987940;28;99481;-71
2022/12/12 02:23:17;;;;;;;35.33;23.00;;;;;;;;;;5005686;28;99535;-71
2022/12/12 02:25:52;;;;;;;31.90;21.33;;;;;;;;;;4998894;28;99257;-72
2022/12/12 02:28:54;;;;;;;32.67;21.17;;;;;;;;;;4997553;28;100407;-71
2022/12/12 02:31:23;;;;;;;30.20;22.35;;;;;;;;;;4924903;28;100200;-71
2022/12/12 02:34:16;;;;;;;34.67;22.58;;;;;;;;;;4987234;28;100183;-71
2022/12/12 02:37:01;;;;;;;32.00;21.52;;;;;;;;;;4973943;28;100121;-71
2022/12/12 02:39:27;;;;;;;31.10;21.73;;;;;;;;;;4995268;28;100413;-71
2022/12/12 02:42:02;;;;;;;29.92;21.92;;;;;;;;;;4985742;28;99409;-72
2022/12/12 02:44:34;;;;;;;32.53;21.30;;;;;;;;;;5000088;28;99142;-72
2022/12/12 02:47:16;;;;;;;32.05;21.33;;;;;;;;;;4998342;28;100041;-71
2022/12/12 02:49:42;;;;;;;32.30;22.05;;;;;;;;;;4990873;28;100587;-71
2022/12/12 02:52:09;;;;;;;31.95;21.08;;;;;;;;;;4998539;28;99994;-71
2022/12/12 02:54:36;;;;;;;27.83;21.25;;;;;;;;;;4999583;28;99064;-71
2022/12/12 02:57:02;;;;;;;29.40;20.83;;;;;;;;;;5004654;28;100194;-71
2022/12/12 02:59:31;;;;;;;31.75;22.20;;;;;;;;;;4996146;28;99631;-71
2022/12/12 03:02:13;;;;;;;33.28;22.80;;;;;;;;;;5000483;28;100487;-71
2022/12/12 03:07:47;;;;;;;28.42;21.67;;;;;;;;;;4994438;28;100171;-71
2022/12/12 03:10:16;;;;;;;31.58;21.42;;;;;;;;;;4986092;28;100592;-71
2022/12/12 03:13:01;;;;;;;31.75;22.10;;;;;;;;;;4997488;28;101582;-71
2022/12/12 03:15:48;;;;;;;38.22;22.00;;;;;;;;;;4987827;28;100164;-71
2022/12/12 03:18:32;;;;;;;30.52;21.63;;;;;;;;;;5001411;28;101298;-71
2022/12/12 03:21:13;;;;;;;29.05;21.15;;;;;;;;;;4986574;28;99535;-71
2022/12/12 03:23:42;;;;;;;34.38;21.40;;;;;;;;;;4986908;28;99419;-71
2022/12/12 03:26:18;;;;;;;30.70;23.10;;;;;;;;;;5004895;28;100217;-71
2022/12/12 03:28:53;;;;;;;32.60;21.20;;;;;;;;;;5001455;28;100662;-71
2022/12/12 03:31:22;;;;;;;30.23;21.98;;;;;;;;;;5001942;28;100250;-72
2022/12/12 03:33:52;;;;;;;30.27;21.08;;;;;;;;;;5004020;28;99060;-71
2022/12/12 03:36:23;;;;;;;30.75;21.02;;;;;;;;;;4990138;28;99207;-71
2022/12/12 03:38:56;;;;;;;29.35;21.63;;;;;;;;;;4985801;28;99499;-72
2022/12/12 03:41:25;;;;;;;35.78;23.00;;;;;;;;;;4997102;28;99549;-71
2022/12/12 03:44:06;;;;;;;29.70;19.95;;;;;;;;;;4996447;28;98594;-71
2022/12/12 03:46:39;;;;;;;30.60;21.77;;;;;;;;;;4988672;28;100168;-72
2022/12/12 03:49:07;;;;;;;30.23;21.50;;;;;;;;;;5004605;28;99795;-71
2022/12/12 03:51:39;;;;;;;36.58;22.20;;;;;;;;;;4991986;28;101044;-72
2022/12/12 03:54:10;;;;;;;31.75;21.90;;;;;;;;;;4999443;28;99030;-71
2022/12/12 03:56:42;;;;;;;32.90;21.48;;;;;;;;;;5001005;28;100041;-72
2022/12/12 03:59:13;;;;;;;34.30;21.77;;;;;;;;;;4990145;28;99462;-72
2022/12/12 04:01:45;;;;;;;28.75;21.13;;;;;;;;;;4996625;28;98916;-72
2022/12/12 04:04:30;;;;;;;33.63;22.80;;;;;;;;;;4994582;28;99270;-72
2022/12/12 04:07:02;;;;;;;29.55;22.23;;;;;;;;;;4996985;28;100063;-72
2022/12/12 04:15:05;;;;;;;36.35;21.95;;;;;;;;;;4993580;28;100058;-71
2022/12/12 04:17:38;;;;;;;32.28;22.92;;;;;;;;;;4991105;28;101061;-71
2022/12/12 04:23:15;;;;;;;32.45;22.95;;;;;;;;;;4985572;28;99026;-72
2022/12/12 04:29:10;;;;;;;37.10;23.13;;;;;;;;;;4989140;28;100383;-72
2022/12/12 04:31:40;;;;;;;36.75;21.98;;;;;;;;;;4986124;28;100130;-72
2022/12/12 04:34:11;;;;;;;37.13;24.27;;;;;;;;;;4995258;28;99444;-72
2022/12/12 04:36:38;;;;;;;38.80;23.65;;;;;;;;;;4997361;28;100095;-70
2022/12/12 04:39:05;;;;;;;34.53;22.73;;;;;;;;;;4992429;28;98502;-70
2022/12/12 04:41:33;;;;;;;32.17;23.13;;;;;;;;;;4984297;28;99539;-71
2022/12/12 04:44:02;;;;;;;32.00;22.77;;;;;;;;;;4999377;28;99965;-71
2022/12/12 04:46:29;;;;;;;38.97;23.58;;;;;;;;;;4983185;28;99835;-71
2022/12/12 04:48:57;;;;;;;38.25;23.38;;;;;;;;;;4993003;28;99527;-72
2022/12/12 04:51:27;;;;;;;34.28;21.73;;;;;;;;;;4993301;28;99452;-71
2022/12/12 04:53:58;;;;;;;35.72;23.30;;;;;;;;;;4992633;28;100543;-71
2022/12/12 04:56:26;;;;;;;40.03;24.02;;;;;;;;;;4995963;28;99955;-71
2022/12/12 04:58:52;;;;;;;31.73;22.25;;;;;;;;;;4994594;28;100746;-71
2022/12/12 05:01:32;;;;;;;37.33;23.23;;;;;;;;;;4984812;28;98873;-71
2022/12/12 05:04:00;;;;;;;40.13;23.92;;;;;;;;;;4984540;28;99277;-71
2022/12/12 05:06:30;;;;;;;41.25;25.20;;;;;;;;;;4984540;28;100325;-71
2022/12/12 05:08:57;;;;;;;35.97;22.50;;;;;;;;;;4991064;28;101250;-71
2022/12/12 05:11:23;;;;;;;36.42;24.00;;;;;;;;;;4999679;28;99116;-72
2022/12/12 05:13:49;;;;;;;36.97;25.58;;;;;;;;;;4996518;28;99416;-71
2022/12/12 05:16:20;;;;;;;43.65;25.33;;;;;;;;;;5002273;28;100023;-72
2022/12/12 05:18:47;;;;;;;43.22;25.58;;;;;;;;;;4995000;28;100254;-70
2022/12/12 05:21:13;;;;;;;38.95;25.60;;;;;;;;;;4993192;28;99564;-71
2022/12/12 05:23:39;;;;;;;42.90;24.90;;;;;;;;;;4991181;28;99956;-71
2022/12/12 05:26:07;;;;;;;38.00;24.83;;;;;;;;;;4968828;28;100495;-72
2022/12/12 05:28:35;;;;;;;35.40;25.58;;;;;;;;;;4995111;28;100151;-71
2022/12/12 05:31:02;;;;;;;41.63;27.13;;;;;;;;;;4994859;28;100101;-72
2022/12/12 05:33:29;;;;;;;42.47;24.55;;;;;;;;;;5001302;28;99740;-72
2022/12/12 05:35:56;;;;;;;41.67;25.92;;;;;;;;;;4992636;28;99050;-72
2022/12/12 05:38:22;;;;;;;44.40;25.30;;;;;;;;;;4995051;28;101225;-72
2022/12/12 05:40:49;;;;;;;41.88;24.83;;;;;;;;;;4988584;28;99479;-72
2022/12/12 05:43:16;;;;;;;42.13;26.35;;;;;;;;;;4993319;28;100156;-72
2022/12/12 05:45:42;;;;;;;42.67;25.75;;;;;;;;;;4989773;28;100073;-72
2022/12/12 05:48:08;;;;;;;47.25;26.70;;;;;;;;;;4993245;28;100944;-72
2022/12/12 05:50:35;;;;;;;42.13;25.58;;;;;;;;;;5001660;28;98977;-72
2022/12/12 05:53:01;;;;;;;40.08;25.30;;;;;;;;;;4984852;28;99356;-72
2022/12/12 05:55:27;;;;;;;42.70;25.92;;;;;;;;;;5004957;28;102061;-72
2022/12/12 05:57:54;;;;;;;43.35;26.65;;;;;;;;;;4993727;28;100422;-72
2022/12/12 06:00:20;;;;;;;40.15;26.95;;;;;;;;;;4985439;28;99516;-72
2022/12/12 06:02:47;;;;;;;44.28;26.13;;;;;;;;;;4994285;28;98952;-72
2022/12/12 06:05:13;;;;;;;42.38;25.40;;;;;;;;;;4994663;28;100144;-72
2022/12/12 06:07:40;;;;;;;42.28;25.75;;;;;;;;;;4997135;28;99282;-71
2022/12/12 06:10:07;;;;;;;48.05;26.88;;;;;;;;;;4997794;28;100253;-71
2022/12/12 06:12:33;;;;;;;50.10;26.08;;;;;;;;;;4988514;28;99386;-73
2022/12/12 06:15:00;;;;;;;48.00;27.52;;;;;;;;;;4991476;28;98770;-71
2022/12/12 06:17:26;;;;;;;45.78;27.30;;;;;;;;;;5007975;28;99039;-71
2022/12/12 06:19:58;;;;;;;45.28;26.40;;;;;;;;;;4999720;28;99469;-71
2022/12/12 06:22:25;;;;;;;43.58;26.23;;;;;;;;;;4995750;28;99283;-72
2022/12/12 06:24:52;;;;;;;46.95;26.85;;;;;;;;;;4998187;28;99815;-72
2022/12/12 06:27:18;;;;;;;43.75;25.80;;;;;;;;;;5003674;28;100469;-72
2022/12/12 06:29:44;;;;;;;51.58;28.08;;;;;;;;;;5000905;28;99287;-71
2022/12/12 06:32:11;;;;;;;56.53;29.33;;;;;;;;;;5004108;28;100250;-71
2022/12/12 06:34:37;;;;;;;49.78;29.92;;;;;;;;;;5001633;28;99787;-72
2022/12/12 06:37:07;;;;;;;53.85;27.73;;;;;;;;;;4996467;28;100145;-72
2022/12/12 06:39:42;;;;;;;48.17;28.80;;;;;;;;;;4993510;28;99750;-71
2022/12/12 06:42:08;;;;;;;58.78;30.25;;;;;;;;;;4993998;28;99510;-72
2022/12/12 06:44:34;;;;;;;53.05;29.17;;;;;;;;;;4994720;28;100340;-71
2022/12/12 06:47:01;;;;;;;41.20;25.92;;;;;;;;;;4993368;28;100098;-72
2022/12/12 06:49:27;;;;;;;46.92;27.10;;;;;;;;;;4996447;28;99737;-72
2022/12/12 06:51:54;;;;;;;48.72;27.52;;;;;;;;;;4996477;28;100057;-72
2022/12/12 06:54:20;;;;;;;48.20;26.45;;;;;;;;;;5004604;28;100179;-72
2022/12/12 06:56:47;;;;;;;45.40;27.08;;;;;;;;;;5003797;28;99155;-71
2022/12/12 06:59:15;;;;;;;46.47;26.77;;;;;;;;;;5006979;28;99959;-71
2022/12/12 07:01:41;;;;;;;45.17;27.10;;;;;;;;;;5002967;28;100041;-72
2022/12/12 07:04:09;;;;;;;49.80;27.40;;;;;;;;;;5004956;28;100268;-71
2022/12/12 07:06:35;;;;;;;48.67;26.60;;;;;;;;;;5002094;28;100501;-72
2022/12/12 07:09:02;;;;;;;49.30;27.05;;;;;;;;;;5003947;28;99213;-72
2022/12/12 07:11:28;;;;;;;47.85;27.55;;;;;;;;;;5001159;28;101378;-72
2022/12/12 07:13:56;;;;;;;50.17;27.50;;;;;;;;;;5003159;28;99686;-72
2022/12/12 07:16:22;;;;;;;43.97;26.75;;;;;;;;;;5002868;28;99250;-72
2022/12/12 07:18:49;;;;;;;52.53;27.50;;;;;;;;;;5003816;28;100318;-72
2022/12/12 07:21:17;;;;;;;44.75;25.88;;;;;;;;;;5006847;28;100326;-72
2022/12/12 07:23:43;;;;;;;52.92;28.08;;;;;;;;;;4986692;28;99190;-72
2022/12/12 07:26:17;;;;;;;47.13;27.77;;;;;;;;;;4998075;28;99833;-73
2022/12/12 07:28:43;;;;;;;50.25;27.23;;;;;;;;;;4999937;28;98862;-72
2022/12/12 07:31:11;;;;;;;47.75;26.25;;;;;;;;;;4996722;28;100299;-73
2022/12/12 07:33:38;;;;;;;50.22;27.00;;;;;;;;;;5003777;28;99307;-73
2022/12/12 07:36:10;;;;;;;54.55;26.95;;;;;;;;;;5003157;28;101129;-73
2022/12/12 07:38:37;;;;;;;54.60;27.85;;;;;;;;;;5003977;28;101062;-73
2022/12/12 07:41:05;;;;;;;51.30;28.38;;;;;;;;;;5004591;28;99627;-74
2022/12/12 07:43:33;;;;;;;52.38;28.08;;;;;;;;;;5006074;28;99250;-74
2022/12/12 07:46:06;;;;;;;52.03;28.60;;;;;;;;;;4997346;28;100084;-73
2022/12/12 07:48:33;;;;;;;51.72;28.00;;;;;;;;;;5003590;28;99127;-74
2022/12/12 07:51:00;;;;;;;49.67;29.60;;;;;;;;;;5003250;28;100471;-74
2022/12/12 07:53:26;;;;;;;61.78;30.17;;;;;;;;;;5004525;28;99687;-73
2022/12/12 07:55:53;;;;;;;55.03;28.98;;;;;;;;;;5000474;28;100018;-74
2022/12/12 07:58:19;;;;;;;53.03;29.15;;;;;;;;;;5003005;28;99000;-73
2022/12/12 08:00:45;;;;;;;48.15;28.08;;;;;;;;;;5003354;28;100888;-73
2022/12/12 08:03:12;;;;;;;48.17;28.27;;;;;;;;;;5003887;28;100328;-73
2022/12/12 08:05:41;;;;;;;50.00;27.48;;;;;;;;;;5006961;28;98522;-74
2022/12/12 08:08:08;;;;;;;53.97;27.05;;;;;;;;;;5003183;28;99432;-73
2022/12/12 08:10:37;;;;;;;62.20;28.83;;;;;;;;;;5002261;28;99118;-75
2022/12/12 08:13:03;;;;;;;50.17;27.40;;;;;;;;;;5002684;28;100717;-73
2022/12/12 08:15:30;;;;;;;57.67;31.00;;;;;;;;;;5003294;28;99409;-73
2022/12/12 08:17:56;;;;;;;54.08;26.17;;;;;;;;;;5002314;28;99022;-74
2022/12/12 08:20:22;;;;;;;56.17;28.05;;;;;;;;;;5002908;28;99728;-73
2022/12/12 08:22:49;;;;;;;53.72;29.70;;;;;;;;;;4998094;28;99197;-73
2022/12/12 08:25:15;;;;;;;51.28;28.33;;;;;;;;;;5002742;28;99361;-74
2022/12/12 08:27:42;;;;;;;51.53;27.10;;;;;;;;;;5006352;28;100136;-73
2022/12/12 08:30:08;;;;;;;53.85;28.75;;;;;;;;;;5003674;28;99939;-73
2022/12/12 08:32:37;;;;;;;44.10;27.75;;;;;;;;;;5002488;28;100155;-73
2022/12/12 08:35:04;;;;;;;49.63;26.83;;;;;;;;;;5003608;28;100072;-73
2022/12/12 08:37:31;;;;;;;57.38;27.77;;;;;;;;;;5004334;28;100109;-73
2022/12/12 08:39:57;;;;;;;50.25;28.35;;;;;;;;;;5003518;28;100181;-74
2022/12/12 08:42:23;;;;;;;50.05;27.20;;;;;;;;;;5005021;28;100262;-74
2022/12/12 08:44:50;;;;;;;49.28;27.73;;;;;;;;;;4992648;28;99376;-73
2022/12/12 08:47:16;;;;;;;50.70;28.85;;;;;;;;;;4999712;28;100251;-72
2022/12/12 08:49:42;;;;;;;52.80;28.20;;;;;;;;;;5004857;28;99925;-73
2022/12/12 08:52:09;;;;;;;46.85;27.13;;;;;;;;;;5001994;28;100406;-71
2022/12/12 08:54:36;;;;;;;51.92;29.23;;;;;;;;;;5002665;28;100101;-72
2022/12/12 08:57:02;;;;;;;52.78;27.02;;;;;;;;;;5003403;28;100247;-73
2022/12/12 08:59:29;;;;;;;50.30;27.30;;;;;;;;;;5001894;28;99510;-73
2022/12/12 09:01:55;;;;;;;50.92;29.25;;;;;;;;;;5001540;28;100214;-72
2022/12/12 09:04:22;;;;;;;62.92;28.67;;;;;;;;;;5003152;28;99153;-73
2022/12/12 09:06:48;;;;;;;55.97;28.02;;;;;;;;;;5003288;28;99782;-74
2022/12/12 09:09:15;;;;;;;40.72;24.27;;;;;;;;;;5005545;28;99703;-74
2022/12/12 09:11:42;;;;;;;43.90;24.70;;;;;;;;;;5003382;28;100174;-74
2022/12/12 09:14:08;;;;;;;49.15;28.05;;;;;;;;;;5001027;28;99307;-74
2022/12/12 09:16:35;;;;;;;47.10;26.95;;;;;;;;;;5002857;28;100744;-74
2022/12/12 09:19:01;;;;;;;48.88;27.58;;;;;;;;;;5002058;28;99301;-74
2022/12/12 09:21:28;;;;;;;52.88;29.17;;;;;;;;;;4993906;28;99372;-73
2022/12/12 09:23:54;;;;;;;46.28;27.63;;;;;;;;;;5002640;28;99148;-74
2022/12/12 09:26:20;;;;;;;49.03;28.45;;;;;;;;;;5002650;28;99490;-73
2022/12/12 09:28:48;;;;;;;51.70;27.38;;;;;;;;;;5002398;28;100158;-74
2022/12/12 09:31:16;;;;;;;58.65;28.60;;;;;;;;;;5006466;28;100019;-73
2022/12/12 09:33:42;;;;;;;54.30;28.70;;;;;;;;;;5002224;28;100278;-74
2022/12/12 09:36:10;;;;;;;40.38;26.92;;;;;;;;;;5004377;28;99918;-73
2022/12/12 09:38:37;;;;;;;43.80;27.20;;;;;;;;;;5005894;28;101205;-73
2022/12/12 09:41:09;;;;;;;50.88;27.15;;;;;;;;;;5006430;28;99910;-73
2022/12/12 09:43:54;;;;;;;46.00;27.48;;;;;;;;;;4997624;28;100192;-73
2022/12/12 09:46:25;;;;;;;45.50;27.15;;;;;;;;;;4997429;28;99459;-74
2022/12/12 09:48:55;;;;;;;45.53;25.70;;;;;;;;;;5005198;28;99182;-74
2022/12/12 09:51:21;;;;;;;52.00;26.70;;;;;;;;;;5005424;28;99237;-74
2022/12/12 09:53:50;;;;;;;40.78;24.65;;;;;;;;;;5009842;28;101163;-74
2022/12/12 09:56:26;;;;;;;43.08;25.35;;;;;;;;;;5005369;28;100275;-77
2022/12/12 09:59:14;;;;;;;44.38;25.25;;;;;;;;;;5006561;28;100590;-74
2022/12/12 10:02:19;;;;;;;46.85;26.65;;;;;;;;;;4997564;28;99132;-74
2022/12/12 10:05:00;;;;;;;43.78;25.35;;;;;;;;;;4935713;28;100002;-74
2022/12/12 10:07:33;;;;;;;42.80;26.08;;;;;;;;;;4943896;28;100478;-74
2022/12/12 10:10:19;;;;;;;45.15;25.48;;;;;;;;;;4975027;28;100500;-73
2022/12/12 10:12:46;;;;;;;40.72;24.20;;;;;;;;;;4998329;28;100613;-73
2022/12/12 10:15:30;;;;;;;40.10;25.52;;;;;;;;;;5005586;28;99429;-73
2022/12/12 10:17:58;;;;;;;38.85;23.13;;;;;;;;;;5002115;28;99128;-74
2022/12/12 10:20:28;;;;;;;42.45;24.98;;;;;;;;;;5004264;28;99272;-74
2022/12/12 10:22:58;;;;;;;41.08;24.35;;;;;;;;;;5001097;28;99161;-74
2022/12/12 10:25:31;;;;;;;39.67;23.88;;;;;;;;;;5001882;28;99746;-73
2022/12/12 10:28:07;;;;;;;44.92;25.83;;;;;;;;;;5005606;28;99507;-73
2022/12/12 10:30:36;;;;;;;40.90;24.58;;;;;;;;;;5004124;28;99352;-74
2022/12/12 10:33:17;;;;;;;46.05;25.33;;;;;;;;;;5004649;28;99888;-74
2022/12/12 10:35:51;;;;;;;36.92;24.02;;;;;;;;;;5004602;28;99312;-73
2022/12/12 10:38:17;;;;;;;42.17;23.48;;;;;;;;;;5004820;28;99139;-73
2022/12/12 10:40:59;;;;;;;39.50;24.88;;;;;;;;;;5007659;28;99136;-75
2022/12/12 10:43:28;;;;;;;39.13;22.65;;;;;;;;;;5004424;28;99406;-73
2022/12/12 10:46:13;;;;;;;40.72;23.10;;;;;;;;;;5001797;28;100094;-73
2022/12/12 10:48:39;;;;;;;40.42;23.48;;;;;;;;;;5004250;28;98471;-73
2022/12/12 10:51:08;;;;;;;36.55;22.63;;;;;;;;;;5005151;28;100083;-73
2022/12/12 10:53:34;;;;;;;41.45;22.52;;;;;;;;;;5003864;28;99375;-74
2022/12/12 10:56:11;;;;;;;37.80;22.10;;;;;;;;;;5004497;28;100080;-73
2022/12/12 10:58:39;;;;;;;35.47;21.48;;;;;;;;;;5003343;28;99382;-73
2022/12/12 11:01:11;;;;;;;37.70;23.48;;;;;;;;;;4998874;28;99995;-73
2022/12/12 11:03:40;;;;;;;37.75;22.05;;;;;;;;;;5007024;28;98785;-73
2022/12/12 11:06:11;;;;;;;36.70;22.15;;;;;;;;;;4998240;28;99338;-72
2022/12/12 11:08:37;;;;;;;35.05;22.20;;;;;;;;;;4996633;28;100740;-73
2022/12/12 11:11:04;;;;;;;34.33;22.27;;;;;;;;;;5004621;28;99699;-72
2022/12/12 11:13:31;;;;;;;38.97;22.55;;;;;;;;;;5002745;28;100236;-72
2022/12/12 11:16:06;;;;;;;34.85;21.50;;;;;;;;;;5000478;28;102236;-72
2022/12/12 11:18:38;;;;;;;32.45;22.27;;;;;;;;;;5003628;28;101612;-72
2022/12/12 11:21:06;;;;;;;37.08;23.50;;;;;;;;;;5003571;28;100047;-72
2022/12/12 11:23:34;;;;;;;43.10;25.42;;;;;;;;;;5008328;28;100502;-72
2022/12/12 11:26:09;;;;;;;33.35;23.20;;;;;;;;;;5004813;28;100027;-72
2022/12/12 11:28:36;;;;;;;36.80;23.30;;;;;;;;;;5002126;28;99301;-73
2022/12/12 11:31:05;;;;;;;38.08;23.10;;;;;;;;;;5004836;28;99995;-72
2022/12/12 11:33:38;;;;;;;35.72;23.50;;;;;;;;;;5004660;28;100146;-73
2022/12/12 11:36:05;;;;;;;35.63;22.88;;;;;;;;;;5002777;28;99587;-72
2022/12/12 11:38:45;;;;;;;36.90;23.17;;;;;;;;;;5004469;28;99094;-71
2022/12/12 11:41:11;;;;;;;34.10;22.08;;;;;;;;;;4996674;28;98845;-73
2022/12/12 11:43:44;;;;;;;39.28;23.13;;;;;;;;;;5004477;28;99337;-71
2022/12/12 11:46:12;;;;;;;34.58;22.50;;;;;;;;;;4999207;28;99867;-72
2022/12/12 11:48:51;;;;;;;31.90;19.08;;;;;;;;;;5003575;28;100223;-72
2022/12/12 11:51:29;;;;;;;39.67;23.63;;;;;;;;;;5004326;28;99970;-71
2022/12/12 11:53:55;;;;;;;30.60;20.73;;;;;;;;;;5003405;28;99847;-72
2022/12/12 11:56:40;;;;;;;35.78;20.42;;;;;;;;;;5003683;28;100508;-72
2022/12/12 11:59:09;;;;;;;32.22;22.70;;;;;;;;;;5002602;28;99254;-72
2022/12/12 12:01:36;;;;;;;40.35;21.52;;;;;;;;;;5003350;28;99388;-74
2022/12/12 12:04:17;;;;;;;31.63;21.45;;;;;;;;;;5001922;28;100571;-72
2022/12/12 12:06:51;;;;;;;39.33;21.77;;;;;;;;;;4999798;28;100064;-72
2022/12/12 12:09:18;;;;;;;30.88;20.77;;;;;;;;;;5004557;28;99990;-72
2022/12/12 12:11:56;;;;;;;31.17;19.95;;;;;;;;;;5001380;28;99343;-72
2022/12/12 12:14:28;;;;;;;36.63;20.80;;;;;;;;;;4997169;28;101105;-72
2022/12/12 12:17:01;;;;;;;39.70;20.92;;;;;;;;;;5002378;28;99422;-72
2022/12/12 12:19:46;;;;;;;32.42;20.85;;;;;;;;;;5003076;28;98977;-72
2022/12/12 12:22:18;;;;;;;35.15;20.55;;;;;;;;;;5002599;28;100263;-71
2022/12/12 12:24:54;;;;;;;32.13;21.05;;;;;;;;;;5002709;28;99549;-71
2022/12/12 12:27:30;;;;;;;33.75;20.33;;;;;;;;;;4995212;28;99176;-72
2022/12/12 12:30:06;;;;;;;29.73;20.20;;;;;;;;;;5003824;28;99438;-72
2022/12/12 12:32:39;;;;;;;31.35;18.70;;;;;;;;;;4991832;28;100171;-72
2022/12/12 12:35:26;;;;;;;40.00;21.25;;;;;;;;;;5004447;28;100355;-72
2022/12/12 12:38:00;;;;;;;31.02;20.90;;;;;;;;;;4996606;28;100432;-72
2022/12/12 12:41:05;;;;;;;32.63;19.98;;;;;;;;;;4982281;28;99977;-72
2022/12/12 12:43:41;;;;;;;31.98;19.40;;;;;;;;;;4910155;28;99080;-71
2022/12/12 12:46:08;;;;;;;30.55;18.77;;;;;;;;;;4904156;28;99851;-72
2022/12/12 12:48:48;;;;;;;31.05;18.63;;;;;;;;;;4953624;28;99277;-71
2022/12/12 12:51:29;;;;;;;26.30;18.80;;;;;;;;;;5000022;28;99263;-71
2022/12/12 12:54:12;;;;;;;27.35;18.55;;;;;;;;;;4984232;28;99442;-71
2022/12/12 12:56:48;;;;;;;32.58;19.48;;;;;;;;;;5000849;28;100486;-71
2022/12/12 12:59:18;;;;;;;27.30;17.98;;;;;;;;;;4993763;28;100242;-71
2022/12/12 13:01:47;;;;;;;29.58;18.10;;;;;;;;;;4984600;28;100251;-71
2022/12/12 13:04:23;;;;;;;26.38;16.85;;;;;;;;;;4999072;28;100229;-72
2022/12/12 13:06:56;;;;;;;25.42;17.70;;;;;;;;;;4985785;28;100276;-72
2022/12/12 13:09:37;;;;;;;27.10;17.42;;;;;;;;;;4988704;28;99995;-73
2022/12/12 13:12:09;;;;;;;28.58;18.42;;;;;;;;;;4999805;28;100636;-72
2022/12/12 13:14:35;;;;;;;29.63;17.83;;;;;;;;;;4990878;28;100290;-72
2022/12/12 13:17:05;;;;;;;26.63;16.42;;;;;;;;;;5000319;28;99968;-71
2022/12/12 13:19:34;;;;;;;27.65;16.67;;;;;;;;;;4999274;28;100314;-72
2022/12/12 13:22:05;;;;;;;28.85;16.75;;;;;;;;;;5003459;28;100433;-72
2022/12/12 13:24:34;;;;;;;30.77;19.27;;;;;;;;;;5004997;28;99714;-72
2022/12/12 13:27:10;;;;;;;26.92;17.35;;;;;;;;;;4987448;28;100242;-72
2022/12/12 13:29:46;;;;;;;28.02;16.42;;;;;;;;;;4987296;28;100059;-71
2022/12/12 13:32:24;;;;;;;29.67;17.50;;;;;;;;;;4987695;28;100895;-71
2022/12/12 13:34:53;;;;;;;31.95;17.45;;;;;;;;;;4991721;28;100547;-72
2022/12/12 13:37:20;;;;;;;32.30;17.80;;;;;;;;;;4997663;28;100343;-72
2022/12/12 13:39:56;;;;;;;26.80;16.88;;;;;;;;;;5003241;28;101590;-72
2022/12/12 13:42:22;;;;;;;26.13;17.02;;;;;;;;;;4999363;28;100164;-73
2022/12/12 13:44:49;;;;;;;28.35;17.35;;;;;;;;;;4991488;28;99222;-73
2022/12/12 13:47:22;;;;;;;30.08;16.52;;;;;;;;;;4998973;28;99727;-73
2022/12/12 13:49:48;;;;;;;26.08;16.35;;;;;;;;;;4989219;28;98965;-73
2022/12/12 13:52:21;;;;;;;24.20;15.75;;;;;;;;;;5003895;28;98909;-73
2022/12/12 13:54:47;;;;;;;24.13;17.13;;;;;;;;;;4997199;28;100656;-73
2022/12/12 13:57:20;;;;;;;21.55;15.05;;;;;;;;;;5006725;28;100238;-73
2022/12/12 13:59:52;;;;;;;28.85;16.20;;;;;;;;;;5006384;28;99933;-73
2022/12/12 14:02:28;;;;;;;21.38;15.45;;;;;;;;;;5008581;28;100255;-73
2022/12/12 14:05:19;;;;;;;28.25;18.38;;;;;;;;;;5000381;28;100311;-71
2022/12/12 14:07:48;;;;;;;26.73;15.57;;;;;;;;;;5003010;28;100187;-72
2022/12/12 14:10:34;;;;;;;24.25;16.73;;;;;;;;;;5003311;28;99968;-72
2022/12/12 14:13:19;;;;;;;24.90;16.05;;;;;;;;;;5006044;28;98926;-72
2022/12/12 14:15:58;;;;;;;23.63;14.32;;;;;;;;;;5004778;28;99564;-72
2022/12/12 14:18:36;;;;;;;22.45;16.02;;;;;;;;;;5004271;28;99580;-71
2022/12/12 14:21:05;;;;;;;24.67;16.75;;;;;;;;;;5001946;28;100187;-70
2022/12/12 14:23:33;;;;;;;28.20;16.20;;;;;;;;;;5003266;28;99439;-70
2022/12/12 14:25:59;;;;;;;24.60;16.00;;;;;;;;;;5008771;28;99628;-70
2022/12/12 14:28:28;;;;;;;25.52;16.83;;;;;;;;;;5001279;28;99280;-70
2022/12/12 14:31:14;;;;;;;26.05;15.15;;;;;;;;;;4995809;28;101538;-71
2022/12/12 14:33:52;;;;;;;29.85;16.58;;;;;;;;;;5000196;28;99496;-70
2022/12/12 14:36:34;;;;;;;26.83;16.83;;;;;;;;;;5004994;28;99785;-70
2022/12/12 14:39:11;;;;;;;26.45;15.65;;;;;;;;;;4996653;28;99719;-70
2022/12/12 14:41:38;;;;;;;23.75;15.13;;;;;;;;;;5000188;28;99360;-71
2022/12/12 14:44:06;;;;;;;20.63;15.77;;;;;;;;;;5002353;28;100269;-71
2022/12/12 14:46:53;;;;;;;31.80;16.95;;;;;;;;;;4998673;28;100137;-71